sensor_id;sensor_type;location;lat;lon;timestamp;P1;P2;P0
68713;PMS7003;55690;51.566;19.198;2023-02-12T00:00:33;5;5;5
68713;PMS7003;55690;51.566;19.198;2023-02-12T00:04:39;8;7;5
68713;PMS7003;55690;51.566;19.198;2023-02-12T00:08:47;7;3;2
68713;PMS7003;55690;51.566;19.198;2023-02-12T00:12:52;13;4;3
68713;PMS7003;55690;51.566;19.198;2023-02-12T00:16:58;19;12;7
68713;PMS7003;55690;51.566;19.198;2023-02-12T00:21:05;4;4;2
68713;PMS7003;55690;51.566;19.198;2023-02-12T00:25:10;6;5;3
68713;PMS7003;55690;51.566;19.198;2023-02-12T00:29:16;9;5;4
68713;PMS7003;55690;51.566;19.198;2023-02-12T00:33:23;6;5;4
68713;PMS7003;55690;51.566;19.198;2023-02-12T00:37:29;5;5;4
68713;PMS7003;55690;51.566;19.198;2023-02-12T00:41:35;5;5;3
68713;PMS7003;55690;51.566;19.198;2023-02-12T00:45:43;8;8;5
68713;PMS7003;55690;51.566;19.198;2023-02-12T00:49:48;13;6;4
68713;PMS7003;55690;51.566;19.198;2023-02-12T00:53:54;5;5;4
68713;PMS7003;55690;51.566;19.198;2023-02-12T00:58:00;7;4;2
68713;PMS7003;55690;51.566;19.198;2023-02-12T01:02:06;7;7;5
68713;PMS7003;55690;51.566;19.198;2023-02-12T01:06:12;8;8;6
68713;PMS7003;55690;51.566;19.198;2023-02-12T01:10:18;7;4;4
68713;PMS7003;55690;51.566;19.198;2023-02-12T01:14:24;1;1;1
68713;PMS7003;55690;51.566;19.198;2023-02-12T01:18:31;8;2;2
68713;PMS7003;55690;51.566;19.198;2023-02-12T01:22:37;6;3;2
68713;PMS7003;55690;51.566;19.198;2023-02-12T01:26:43;3;2;2
68713;PMS7003;55690;51.566;19.198;2023-02-12T01:30:49;4;4;3
68713;PMS7003;55690;51.566;19.198;2023-02-12T01:34:55;3;0;0
68713;PMS7003;55690;51.566;19.198;2023-02-12T01:39:02;1;1;1
68713;PMS7003;55690;51.566;19.198;2023-02-12T01:43:10;0;0;0
68713;PMS7003;55690;51.566;19.198;2023-02-12T01:47:16;2;2;2
68713;PMS7003;55690;51.566;19.198;2023-02-12T01:51:20;0;0;0
68713;PMS7003;55690;51.566;19.198;2023-02-12T01:55:26;1;1;1
68713;PMS7003;55690;51.566;19.198;2023-02-12T01:59:32;0;0;0
68713;PMS7003;55690;51.566;19.198;2023-02-12T02:03:39;1;1;1
68713;PMS7003;55690;51.566;19.198;2023-02-12T02:07:45;0;0;0
68713;PMS7003;55690;51.566;19.198;2023-02-12T02:11:51;2;2;1
68713;PMS7003;55690;51.566;19.198;2023-02-12T02:16:10;0;0;0
68713;PMS7003;55690;51.566;19.198;2023-02-12T02:45:52;0;0;0
68713;PMS7003;55690;51.566;19.198;2023-02-12T02:49:51;0;0;0
68713;PMS7003;55690;51.566;19.198;2023-02-12T02:54:04;0;0;0
68713;PMS7003;55690;51.566;19.198;2023-02-12T02:58:12;1;1;1
68713;PMS7003;55690;51.566;19.198;2023-02-12T03:02:25;8;0;0
68713;PMS7003;55690;51.566;19.198;2023-02-12T03:06:32;0;0;0
68713;PMS7003;55690;51.566;19.198;2023-02-12T03:10:46;0;0;0
68713;PMS7003;55690;51.566;19.198;2023-02-12T03:14:58;0;0;0
68713;PMS7003;55690;51.566;19.198;2023-02-12T03:19:07;4;1;1
68713;PMS7003;55690;51.566;19.198;2023-02-12T03:23:16;3;0;0
68713;PMS7003;55690;51.566;19.198;2023-02-12T03:31:35;7;0;0
68713;PMS7003;55690;51.566;19.198;2023-02-12T03:35:47;3;0;0
68713;PMS7003;55690;51.566;19.198;2023-02-12T03:48:29;0;0;0
68713;PMS7003;55690;51.566;19.198;2023-02-12T03:52:38;1;1;1
68713;PMS7003;55690;51.566;19.198;2023-02-12T04:00:54;0;0;0
68713;PMS7003;55690;51.566;19.198;2023-02-12T04:04:57;0;0;0
68713;PMS7003;55690;51.566;19.198;2023-02-12T04:09:04;1;1;0
68713;PMS7003;55690;51.566;19.198;2023-02-12T04:30:08;2;1;1
68713;PMS7003;55690;51.566;19.198;2023-02-12T04:38:41;0;0;0
68713;PMS7003;55690;51.566;19.198;2023-02-12T04:42:47;0;0;0
68713;PMS7003;55690;51.566;19.198;2023-02-12T04:46:50;0;0;0
68713;PMS7003;55690;51.566;19.198;2023-02-12T04:50:52;0;0;0
68713;PMS7003;55690;51.566;19.198;2023-02-12T04:54:54;3;0;0
68713;PMS7003;55690;51.566;19.198;2023-02-12T04:58:55;3;1;1
68713;PMS7003;55690;51.566;19.198;2023-02-12T05:02:58;4;1;1
68713;PMS7003;55690;51.566;19.198;2023-02-12T05:06:59;0;0;0
68713;PMS7003;55690;51.566;19.198;2023-02-12T05:11:04;3;0;0
68713;PMS7003;55690;51.566;19.198;2023-02-12T05:15:09;2;0;0
68713;PMS7003;55690;51.566;19.198;2023-02-12T05:19:10;5;0;0
68713;PMS7003;55690;51.566;19.198;2023-02-12T05:23:12;1;1;0
68713;PMS7003;55690;51.566;19.198;2023-02-12T05:27:13;0;0;0
68713;PMS7003;55690;51.566;19.198;2023-02-12T05:31:16;0;0;0
68713;PMS7003;55690;51.566;19.198;2023-02-12T05:35:18;1;1;0
68713;PMS7003;55690;51.566;19.198;2023-02-12T05:39:20;4;2;1
68713;PMS7003;55690;51.566;19.198;2023-02-12T05:43:22;1;1;0
68713;PMS7003;55690;51.566;19.198;2023-02-12T05:47:23;1;1;1
68713;PMS7003;55690;51.566;19.198;2023-02-12T05:51:25;0;0;0
68713;PMS7003;55690;51.566;19.198;2023-02-12T05:55:27;0;0;0
68713;PMS7003;55690;51.566;19.198;2023-02-12T05:59:29;2;2;1
68713;PMS7003;55690;51.566;19.198;2023-02-12T06:03:30;4;1;1
68713;PMS7003;55690;51.566;19.198;2023-02-12T06:07:32;3;3;2
68713;PMS7003;55690;51.566;19.198;2023-02-12T06:11:33;3;1;1
68713;PMS7003;55690;51.566;19.198;2023-02-12T06:15:35;4;0;0
68713;PMS7003;55690;51.566;19.198;2023-02-12T06:19:37;2;1;1
68713;PMS7003;55690;51.566;19.198;2023-02-12T06:23:38;2;2;1
68713;PMS7003;55690;51.566;19.198;2023-02-12T06:27:39;3;2;1
68713;PMS7003;55690;51.566;19.198;2023-02-12T06:31:41;2;2;1
68713;PMS7003;55690;51.566;19.198;2023-02-12T06:35:42;0;0;0
68713;PMS7003;55690;51.566;19.198;2023-02-12T06:39:44;1;1;1
68713;PMS7003;55690;51.566;19.198;2023-02-12T06:43:46;1;1;0
68713;PMS7003;55690;51.566;19.198;2023-02-12T06:47:48;3;0;0
68713;PMS7003;55690;51.566;19.198;2023-02-12T06:51:49;7;1;1
68713;PMS7003;55690;51.566;19.198;2023-02-12T06:55:50;2;2;1
68713;PMS7003;55690;51.566;19.198;2023-02-12T06:59:53;13;2;2
68713;PMS7003;55690;51.566;19.198;2023-02-12T07:03:56;5;1;1
68713;PMS7003;55690;51.566;19.198;2023-02-12T07:07:59;2;1;1
68713;PMS7003;55690;51.566;19.198;2023-02-12T07:12:00;2;2;1
68713;PMS7003;55690;51.566;19.198;2023-02-12T07:16:02;3;3;2
68713;PMS7003;55690;51.566;19.198;2023-02-12T07:20:09;1;1;1
68713;PMS7003;55690;51.566;19.198;2023-02-12T07:24:11;1;1;1
68713;PMS7003;55690;51.566;19.198;2023-02-12T07:28:14;1;1;1
68713;PMS7003;55690;51.566;19.198;2023-02-12T07:32:16;2;2;2
68713;PMS7003;55690;51.566;19.198;2023-02-12T07:36:18;3;3;3
68713;PMS7003;55690;51.566;19.198;2023-02-12T07:40:20;2;2;2
68713;PMS7003;55690;51.566;19.198;2023-02-12T07:44:21;3;3;2
68713;PMS7003;55690;51.566;19.198;2023-02-12T07:48:23;3;3;0
68713;PMS7003;55690;51.566;19.198;2023-02-12T07:52:24;2;1;1
68713;PMS7003;55690;51.566;19.198;2023-02-12T07:56:31;3;3;2
68713;PMS7003;55690;51.566;19.198;2023-02-12T08:00:39;2;2;2
68713;PMS7003;55690;51.566;19.198;2023-02-12T08:04:43;5;5;2
68713;PMS7003;55690;51.566;19.198;2023-02-12T08:08:50;3;1;1
68713;PMS7003;55690;51.566;19.198;2023-02-12T08:12:55;7;5;5
68713;PMS7003;55690;51.566;19.198;2023-02-12T08:17:01;2;2;1
68713;PMS7003;55690;51.566;19.198;2023-02-12T08:21:08;2;1;0
68713;PMS7003;55690;51.566;19.198;2023-02-12T08:26:42;2;2;2
68713;PMS7003;55690;51.566;19.198;2023-02-12T08:30:49;3;3;2
68713;PMS7003;55690;51.566;19.198;2023-02-12T08:34:55;2;2;2
68713;PMS7003;55690;51.566;19.198;2023-02-12T08:39:01;6;3;3
68713;PMS7003;55690;51.566;19.198;2023-02-12T08:43:07;4;2;1
68713;PMS7003;55690;51.566;19.198;2023-02-12T08:47:13;5;5;4
68713;PMS7003;55690;51.566;19.198;2023-02-12T08:51:21;5;4;3
68713;PMS7003;55690;51.566;19.198;2023-02-12T08:55:26;9;6;4
68713;PMS7003;55690;51.566;19.198;2023-02-12T08:59:32;7;4;3
68713;PMS7003;55690;51.566;19.198;2023-02-12T09:03:38;4;2;1
68713;PMS7003;55690;51.566;19.198;2023-02-12T09:07:44;14;7;4
68713;PMS7003;55690;51.566;19.198;2023-02-12T09:11:50;4;4;1
68713;PMS7003;55690;51.566;19.198;2023-02-12T09:15:58;8;3;1
68713;PMS7003;55690;51.566;19.198;2023-02-12T09:20:03;3;3;3
68713;PMS7003;55690;51.566;19.198;2023-02-12T09:24:09;4;4;3
68713;PMS7003;55690;51.566;19.198;2023-02-12T09:28:15;10;8;4
68713;PMS7003;55690;51.566;19.198;2023-02-12T09:32:21;15;5;5
68713;PMS7003;55690;51.566;19.198;2023-02-12T09:36:28;13;6;5
68713;PMS7003;55690;51.566;19.198;2023-02-12T09:49:07;3;3;3
68713;PMS7003;55690;51.566;19.198;2023-02-12T09:53:15;3;2;2
68713;PMS7003;55690;51.566;19.198;2023-02-12T10:01:31;5;5;4
68713;PMS7003;55690;51.566;19.198;2023-02-12T10:10:05;2;2;1
68713;PMS7003;55690;51.566;19.198;2023-02-12T10:18:27;1;1;1
68713;PMS7003;55690;51.566;19.198;2023-02-12T10:26:47;9;4;3
68713;PMS7003;55690;51.566;19.198;2023-02-12T10:35:06;9;7;6
68713;PMS7003;55690;51.566;19.198;2023-02-12T10:43:22;8;3;3
68713;PMS7003;55690;51.566;19.198;2023-02-12T10:47:24;10;4;3
68713;PMS7003;55690;51.566;19.198;2023-02-12T10:51:34;5;5;4
68713;PMS7003;55690;51.566;19.198;2023-02-12T10:55:41;5;4;3
68713;PMS7003;55690;51.566;19.198;2023-02-12T10:59:44;5;3;2
68713;PMS7003;55690;51.566;19.198;2023-02-12T11:03:47;5;3;2
68713;PMS7003;55690;51.566;19.198;2023-02-12T11:07:50;4;4;3
68713;PMS7003;55690;51.566;19.198;2023-02-12T11:11:52;6;5;5
68713;PMS7003;55690;51.566;19.198;2023-02-12T11:15:53;2;2;1
68713;PMS7003;55690;51.566;19.198;2023-02-12T11:28:18;3;2;2
68713;PMS7003;55690;51.566;19.198;2023-02-12T11:32:20;3;3;2
68713;PMS7003;55690;51.566;19.198;2023-02-12T11:36:22;12;8;5
68713;PMS7003;55690;51.566;19.198;2023-02-12T11:40:27;5;2;2
68713;PMS7003;55690;51.566;19.198;2023-02-12T11:44:33;2;2;2
68713;PMS7003;55690;51.566;19.198;2023-02-12T11:48:38;4;4;2
68713;PMS7003;55690;51.566;19.198;2023-02-12T11:52:44;5;4;2
68713;PMS7003;55690;51.566;19.198;2023-02-12T11:56:50;6;4;3
68713;PMS7003;55690;51.566;19.198;2023-02-12T12:05:19;5;4;2
68713;PMS7003;55690;51.566;19.198;2023-02-12T12:13:34;6;6;4
68713;PMS7003;55690;51.566;19.198;2023-02-12T12:22:15;3;2;1
68713;PMS7003;55690;51.566;19.198;2023-02-12T12:26:23;2;1;1
68713;PMS7003;55690;51.566;19.198;2023-02-12T12:34:42;1;1;1
68713;PMS7003;55690;51.566;19.198;2023-02-12T13:16:48;9;2;2
68713;PMS7003;55690;51.566;19.198;2023-02-12T13:29:25;3;2;2
68713;PMS7003;55690;51.566;19.198;2023-02-12T13:37:52;3;2;1
68713;PMS7003;55690;51.566;19.198;2023-02-12T13:41:57;3;3;2
68713;PMS7003;55690;51.566;19.198;2023-02-12T13:46:19;3;1;0
68713;PMS7003;55690;51.566;19.198;2023-02-12T13:58:49;4;4;3
68713;PMS7003;55690;51.566;19.198;2023-02-12T14:02:52;1;1;1
68713;PMS7003;55690;51.566;19.198;2023-02-12T14:06:57;10;2;2
68713;PMS7003;55690;51.566;19.198;2023-02-12T14:11:07;1;1;1
68713;PMS7003;55690;51.566;19.198;2023-02-12T14:23:41;5;3;2
68713;PMS7003;55690;51.566;19.198;2023-02-12T14:31:54;4;3;2
68713;PMS7003;55690;51.566;19.198;2023-02-12T14:52:54;4;1;1
68713;PMS7003;55690;51.566;19.198;2023-02-12T14:57:08;4;2;2
68713;PMS7003;55690;51.566;19.198;2023-02-12T15:01:15;5;3;2
68713;PMS7003;55690;51.566;19.198;2023-02-12T15:05:21;3;2;2
68713;PMS7003;55690;51.566;19.198;2023-02-12T15:09:31;4;4;4
68713;PMS7003;55690;51.566;19.198;2023-02-12T15:17:58;14;4;3
68713;PMS7003;55690;51.566;19.198;2023-02-12T15:22:28;7;4;3
68713;PMS7003;55690;51.566;19.198;2023-02-12T15:26:24;5;5;4
68713;PMS7003;55690;51.566;19.198;2023-02-12T15:30:32;13;3;2
68713;PMS7003;55690;51.566;19.198;2023-02-12T15:34:36;7;3;3
68713;PMS7003;55690;51.566;19.198;2023-02-12T15:38:46;5;4;3
68713;PMS7003;55690;51.566;19.198;2023-02-12T15:43:00;3;3;1
68713;PMS7003;55690;51.566;19.198;2023-02-12T15:47:00;3;3;2
68713;PMS7003;55690;51.566;19.198;2023-02-12T15:55:20;2;2;2
68713;PMS7003;55690;51.566;19.198;2023-02-12T15:59:26;4;4;2
68713;PMS7003;55690;51.566;19.198;2023-02-12T16:03:30;17;1;1
68713;PMS7003;55690;51.566;19.198;2023-02-12T16:07:36;5;2;2
68713;PMS7003;55690;51.566;19.198;2023-02-12T16:11:39;5;4;2
68713;PMS7003;55690;51.566;19.198;2023-02-12T16:15:44;7;5;4
68713;PMS7003;55690;51.566;19.198;2023-02-12T16:23:58;5;3;2
68713;PMS7003;55690;51.566;19.198;2023-02-12T16:28:03;4;4;3
68713;PMS7003;55690;51.566;19.198;2023-02-12T16:32:24;12;5;3
68713;PMS7003;55690;51.566;19.198;2023-02-12T16:40:32;5;3;3
68713;PMS7003;55690;51.566;19.198;2023-02-12T16:44:35;7;5;3
68713;PMS7003;55690;51.566;19.198;2023-02-12T16:48:38;5;5;4
68713;PMS7003;55690;51.566;19.198;2023-02-12T16:52:41;2;2;2
68713;PMS7003;55690;51.566;19.198;2023-02-12T16:56:43;6;5;5
68713;PMS7003;55690;51.566;19.198;2023-02-12T17:00:45;5;3;2
68713;PMS7003;55690;51.566;19.198;2023-02-12T17:04:46;5;5;4
68713;PMS7003;55690;51.566;19.198;2023-02-12T17:08:48;12;6;4
68713;PMS7003;55690;51.566;19.198;2023-02-12T17:12:50;7;5;4
68713;PMS7003;55690;51.566;19.198;2023-02-12T17:16:52;19;8;6
68713;PMS7003;55690;51.566;19.198;2023-02-12T17:20:55;4;4;3
68713;PMS7003;55690;51.566;19.198;2023-02-12T17:24:59;5;5;3
68713;PMS7003;55690;51.566;19.198;2023-02-12T17:29:01;11;7;5
68713;PMS7003;55690;51.566;19.198;2023-02-12T17:33:05;5;5;4
68713;PMS7003;55690;51.566;19.198;2023-02-12T17:37:06;7;6;4
68713;PMS7003;55690;51.566;19.198;2023-02-12T17:41:08;11;7;3
68713;PMS7003;55690;51.566;19.198;2023-02-12T17:45:10;5;5;4
68713;PMS7003;55690;51.566;19.198;2023-02-12T17:49:12;10;4;3
68713;PMS7003;55690;51.566;19.198;2023-02-12T17:53:14;9;8;5
68713;PMS7003;55690;51.566;19.198;2023-02-12T17:57:15;9;6;4
68713;PMS7003;55690;51.566;19.198;2023-02-12T18:01:19;18;9;6
68713;PMS7003;55690;51.566;19.198;2023-02-12T18:05:21;14;12;6
68713;PMS7003;55690;51.566;19.198;2023-02-12T18:09:23;5;5;4
68713;PMS7003;55690;51.566;19.198;2023-02-12T18:13:24;11;7;4
68713;PMS7003;55690;51.566;19.198;2023-02-12T18:17:26;8;7;4
68713;PMS7003;55690;51.566;19.198;2023-02-12T18:21:28;12;8;6
68713;PMS7003;55690;51.566;19.198;2023-02-12T18:25:30;10;8;5
68713;PMS7003;55690;51.566;19.198;2023-02-12T18:29:31;10;6;4
68713;PMS7003;55690;51.566;19.198;2023-02-12T18:33:33;8;4;3
68713;PMS7003;55690;51.566;19.198;2023-02-12T18:37:35;10;7;4
68713;PMS7003;55690;51.566;19.198;2023-02-12T18:41:37;11;9;6
68713;PMS7003;55690;51.566;19.198;2023-02-12T18:45:38;9;4;3
68713;PMS7003;55690;51.566;19.198;2023-02-12T18:49:40;10;5;4
68713;PMS7003;55690;51.566;19.198;2023-02-12T18:53:41;8;6;5
68713;PMS7003;55690;51.566;19.198;2023-02-12T18:57:43;15;7;5
68713;PMS7003;55690;51.566;19.198;2023-02-12T19:01:44;14;10;5
68713;PMS7003;55690;51.566;19.198;2023-02-12T19:05:47;9;7;5
68713;PMS7003;55690;51.566;19.198;2023-02-12T19:09:48;8;6;4
68713;PMS7003;55690;51.566;19.198;2023-02-12T19:13:52;18;10;5
68713;PMS7003;55690;51.566;19.198;2023-02-12T19:17:54;10;8;6
68713;PMS7003;55690;51.566;19.198;2023-02-12T19:21:55;10;4;3
68713;PMS7003;55690;51.566;19.198;2023-02-12T19:26:07;15;13;10
68713;PMS7003;55690;51.566;19.198;2023-02-12T19:30:08;7;6;4
68713;PMS7003;55690;51.566;19.198;2023-02-12T19:34:20;16;8;5
68713;PMS7003;55690;51.566;19.198;2023-02-12T19:38:19;12;8;7
68713;PMS7003;55690;51.566;19.198;2023-02-12T19:42:21;10;8;6
68713;PMS7003;55690;51.566;19.198;2023-02-12T19:46:22;9;8;7
68713;PMS7003;55690;51.566;19.198;2023-02-12T19:50:25;12;9;4
68713;PMS7003;55690;51.566;19.198;2023-02-12T19:54:27;14;5;3
68713;PMS7003;55690;51.566;19.198;2023-02-12T19:58:28;12;4;2
68713;PMS7003;55690;51.566;19.198;2023-02-12T20:02:31;10;10;7
68713;PMS7003;55690;51.566;19.198;2023-02-12T20:06:33;13;11;10
68713;PMS7003;55690;51.566;19.198;2023-02-12T20:10:37;19;10;8
68713;PMS7003;55690;51.566;19.198;2023-02-12T20:14:39;13;9;7
68713;PMS7003;55690;51.566;19.198;2023-02-12T20:18:45;16;8;5
68713;PMS7003;55690;51.566;19.198;2023-02-12T20:22:48;8;8;7
68713;PMS7003;55690;51.566;19.198;2023-02-12T20:26:50;12;9;8
68713;PMS7003;55690;51.566;19.198;2023-02-12T20:30:51;25;14;8
68713;PMS7003;55690;51.566;19.198;2023-02-12T20:34:53;11;7;3
68713;PMS7003;55690;51.566;19.198;2023-02-12T20:38:54;9;9;6
68713;PMS7003;55690;51.566;19.198;2023-02-12T20:42:56;20;12;8
68713;PMS7003;55690;51.566;19.198;2023-02-12T20:46:58;16;13;6
68713;PMS7003;55690;51.566;19.198;2023-02-12T20:51:03;15;6;4
68713;PMS7003;55690;51.566;19.198;2023-02-12T20:55:07;14;13;8
68713;PMS7003;55690;51.566;19.198;2023-02-12T20:59:12;19;15;8
68713;PMS7003;55690;51.566;19.198;2023-02-12T21:03:18;11;7;5
68713;PMS7003;55690;51.566;19.198;2023-02-12T21:07:24;16;9;6
68713;PMS7003;55690;51.566;19.198;2023-02-12T21:11:31;13;10;7
68713;PMS7003;55690;51.566;19.198;2023-02-12T21:15:37;22;13;8
68713;PMS7003;55690;51.566;19.198;2023-02-12T21:19:43;17;15;10
68713;PMS7003;55690;51.566;19.198;2023-02-12T21:23:50;16;12;8
68713;PMS7003;55690;51.566;19.198;2023-02-12T21:27:55;16;15;10
68713;PMS7003;55690;51.566;19.198;2023-02-12T21:32:02;22;8;7
68713;PMS7003;55690;51.566;19.198;2023-02-12T21:36:09;8;8;5
68713;PMS7003;55690;51.566;19.198;2023-02-12T21:40:15;16;12;6
68713;PMS7003;55690;51.566;19.198;2023-02-12T21:44:21;10;10;8
68713;PMS7003;55690;51.566;19.198;2023-02-12T21:48:26;22;15;10
68713;PMS7003;55690;51.566;19.198;2023-02-12T21:52:32;24;10;6
68713;PMS7003;55690;51.566;19.198;2023-02-12T21:56:39;16;16;10
68713;PMS7003;55690;51.566;19.198;2023-02-12T22:00:45;18;12;10
68713;PMS7003;55690;51.566;19.198;2023-02-12T22:04:52;22;13;8
68713;PMS7003;55690;51.566;19.198;2023-02-12T22:09:01;19;10;7
68713;PMS7003;55690;51.566;19.198;2023-02-12T22:13:07;21;12;8
68713;PMS7003;55690;51.566;19.198;2023-02-12T22:17:09;15;14;11
68713;PMS7003;55690;51.566;19.198;2023-02-12T22:21:16;23;13;9
68713;PMS7003;55690;51.566;19.198;2023-02-12T22:25:22;15;12;8
68713;PMS7003;55690;51.566;19.198;2023-02-12T22:29:28;22;13;9
68713;PMS7003;55690;51.566;19.198;2023-02-12T22:33:34;24;16;11
68713;PMS7003;55690;51.566;19.198;2023-02-12T22:37:40;21;12;8
68713;PMS7003;55690;51.566;19.198;2023-02-12T22:41:47;25;8;4
68713;PMS7003;55690;51.566;19.198;2023-02-12T22:45:53;22;19;11
68713;PMS7003;55690;51.566;19.198;2023-02-12T22:49:59;11;8;5
68713;PMS7003;55690;51.566;19.198;2023-02-12T22:54:06;28;18;10
68713;PMS7003;55690;51.566;19.198;2023-02-12T22:58:11;18;14;7
68713;PMS7003;55690;51.566;19.198;2023-02-12T23:02:17;7;4;2
68713;PMS7003;55690;51.566;19.198;2023-02-12T23:06:25;23;9;5
68713;PMS7003;55690;51.566;19.198;2023-02-12T23:10:30;12;8;6
68713;PMS7003;55690;51.566;19.198;2023-02-12T23:14:36;21;13;10
68713;PMS7003;55690;51.566;19.198;2023-02-12T23:18:43;20;14;8
68713;PMS7003;55690;51.566;19.198;2023-02-12T23:22:49;11;10;8
68713;PMS7003;55690;51.566;19.198;2023-02-12T23:26:55;11;10;7
68713;PMS7003;55690;51.566;19.198;2023-02-12T23:31:01;11;9;6
68713;PMS7003;55690;51.566;19.198;2023-02-12T23:35:07;14;7;4
68713;PMS7003;55690;51.566;19.198;2023-02-12T23:39:15;14;8;5
68713;PMS7003;55690;51.566;19.198;2023-02-12T23:43:20;11;9;5
68713;PMS7003;55690;51.566;19.198;2023-02-12T23:47:26;7;4;2
68713;PMS7003;55690;51.566;19.198;2023-02-12T23:51:32;10;9;7
68713;PMS7003;55690;51.566;19.198;2023-02-12T23:55:38;16;10;8
68713;PMS7003;55690;51.566;19.198;2023-02-12T23:59:45;12;8;6
